Terminal Aerodrome Forecast
Issued by NWS Wilmington, NC

Home | Current Version | Previous Version | Text Only | Print | Product List | Glossary On
Versions: 1 2 3 4 5 6 7 8 9 10 11 12 13 14 15 16 17 18 19 20 21
000
FTUS42 KILM 211456 AAB
TAFILM
TAF AMD
KILM 211456Z 2115/2212 09006KT P6SM VCSH SCT020 BKN070
      TEMPO 2115/2116 BKN020
     FM211800 15010KT P6SM SCT030 SCT070 BKN250
     FM220000 16004KT P6SM SCT250
      TEMPO 2209/2212 00000KT 4SM BR=

USA.gov is the U.S. government's official web portal to all federal, state and local government web resources and services.